EmailTwitter


Observations de surface / France / LFMP (07747)

Régions: Québec | Canada | États-Unis | Europe | France | UK | Elsewhere
Station
Affichage
Infos & localisation pour LFMP (07747) | Aide pour décoder les METARs

Observations prises le 2017-04-29 à 19H00 UTC à PERPIGNAN/RIVESA, FR (LFMP)

Etat du ciel: quelques nuages.

Température: 14.0 Celsius

Point de rosée: 9.0 Celsius

Humidité relative: 72%

Vents: Est-sud-est à 17 km/h ou 9 noeuds.

Pression au niveau moyen de la mer: 101.10 kilopascals.

Visibilité horizontale: 6.21 milles terrestres ou 9.94 kilomètres.

Observation METAR:

LFMP 291900Z AUTO 11009KT 9999 FEW058/// 14/09 Q1011 NOSIG=